createdAt,value
2018-09-10T00:00:40.552Z,20.40
2018-09-10T00:03:09.453Z,20.40
2018-09-10T00:05:38.385Z,20.40
2018-09-10T00:08:07.284Z,20.40
2018-09-10T00:10:36.221Z,20.40
2018-09-10T00:13:05.165Z,20.40
2018-09-10T00:15:34.086Z,20.30
2018-09-10T00:18:03.029Z,20.30
2018-09-10T00:20:31.944Z,20.30
2018-09-10T00:23:00.884Z,20.30
2018-09-10T00:25:29.825Z,20.30
2018-09-10T00:27:58.765Z,20.20
2018-09-10T00:30:27.677Z,20.10
2018-09-10T00:32:56.604Z,20.10
2018-09-10T00:35:25.511Z,20.00
2018-09-10T00:37:54.440Z,20.00
2018-09-10T00:40:23.330Z,20.00
2018-09-10T00:42:52.265Z,19.90
2018-09-10T00:45:21.149Z,19.90
2018-09-10T00:47:50.077Z,19.90
2018-09-10T00:50:19.007Z,19.80
2018-09-10T00:52:47.932Z,19.80
2018-09-10T00:55:16.822Z,19.80
2018-09-10T00:57:45.794Z,19.70
2018-09-10T01:00:14.704Z,19.70
2018-09-10T01:02:43.666Z,19.60
2018-09-10T01:05:12.560Z,19.60
2018-09-10T01:07:41.502Z,19.50
2018-09-10T01:10:10.412Z,19.50
2018-09-10T01:12:39.505Z,19.50
2018-09-10T01:15:08.421Z,19.40
2018-09-10T01:17:37.340Z,19.40
2018-09-10T01:20:06.401Z,19.40
2018-09-10T01:22:35.464Z,19.30
2018-09-10T01:25:04.356Z,19.20
2018-09-10T01:27:33.266Z,19.20
2018-09-10T01:30:02.197Z,19.10
2018-09-10T01:32:31.105Z,19.10
2018-09-10T01:35:04.449Z,19.00
2018-09-10T01:37:34.417Z,18.90
2018-09-10T01:40:03.765Z,18.90
2018-09-10T01:42:33.017Z,18.90
2018-09-10T01:45:02.456Z,18.90
2018-09-10T01:47:31.416Z,18.90
2018-09-10T01:50:00.418Z,18.90
2018-09-10T01:52:29.618Z,18.90
2018-09-10T01:54:58.524Z,18.90
2018-09-10T01:57:27.420Z,18.80
2018-09-10T01:59:56.341Z,18.80
2018-09-10T02:02:25.233Z,18.80
2018-09-10T02:04:54.197Z,18.80
2018-09-10T02:07:23.104Z,18.80
2018-09-10T02:09:52.037Z,18.80
2018-09-10T02:12:25.959Z,18.80
2018-09-10T02:14:56.117Z,18.80
2018-09-10T02:17:25.645Z,18.80
2018-09-10T02:19:54.844Z,18.80
2018-09-10T02:22:23.751Z,18.80
2018-09-10T02:24:53.021Z,18.80
2018-09-10T02:27:21.954Z,18.80
2018-09-10T02:29:50.880Z,18.70
2018-09-10T02:32:19.768Z,18.70
2018-09-10T02:34:48.727Z,18.60
2018-09-10T02:37:17.640Z,18.60
2018-09-10T02:39:46.543Z,18.60
2018-09-10T02:42:15.476Z,18.60
2018-09-10T02:44:44.381Z,18.50
2018-09-10T02:47:13.314Z,18.40
2018-09-10T02:49:42.256Z,18.40
2018-09-10T02:52:11.188Z,18.40
2018-09-10T02:54:40.113Z,18.40
2018-09-10T02:57:09.377Z,18.30
2018-09-10T02:59:38.285Z,18.30
2018-09-10T03:02:07.348Z,18.30
2018-09-10T03:04:36.373Z,18.30
2018-09-10T03:07:05.488Z,18.20
2018-09-10T03:09:34.458Z,18.20
2018-09-10T03:12:03.418Z,18.10
2018-09-10T03:14:32.309Z,18.10
2018-09-10T03:17:01.484Z,18.00
2018-09-10T03:19:30.421Z,18.00
2018-09-10T03:21:59.344Z,17.90
2018-09-10T03:24:28.416Z,17.90
2018-09-10T03:26:57.372Z,17.90
2018-09-10T03:29:26.333Z,17.80
2018-09-10T03:31:55.257Z,17.70
2018-09-10T03:34:24.275Z,17.70
2018-09-10T03:36:53.407Z,17.70
2018-09-10T03:39:22.445Z,17.60
2018-09-10T03:41:51.361Z,17.60
2018-09-10T03:44:20.324Z,17.60
2018-09-10T03:46:49.301Z,17.60
2018-09-10T03:49:18.225Z,17.60
2018-09-10T03:51:47.117Z,17.50
2018-09-10T03:54:16.141Z,17.50
2018-09-10T03:56:45.036Z,17.50
2018-09-10T03:59:14.010Z,17.50
2018-09-10T04:01:42.901Z,17.50
2018-09-10T04:04:11.797Z,17.50
2018-09-10T04:06:40.727Z,17.50
2018-09-10T04:09:10.336Z,17.50
2018-09-10T04:11:39.268Z,17.60
2018-09-10T04:14:08.169Z,17.60
2018-09-10T04:16:37.112Z,17.60
2018-09-10T04:19:06.121Z,17.60
2018-09-10T04:21:35.065Z,17.60
2018-09-10T04:24:03.965Z,17.60
2018-09-10T04:26:32.929Z,17.50
2018-09-10T04:29:01.851Z,17.50
2018-09-10T04:31:30.780Z,17.40
2018-09-10T04:33:59.676Z,17.40
2018-09-10T04:36:28.608Z,17.40
2018-09-10T04:38:57.520Z,17.30
2018-09-10T04:41:26.462Z,17.30
2018-09-10T04:43:55.373Z,17.20
2018-09-10T04:46:24.313Z,17.20
2018-09-10T04:48:53.210Z,17.20
2018-09-10T04:51:22.133Z,17.10
2018-09-10T04:53:51.045Z,17.10
2018-09-10T04:56:19.975Z,17.10
2018-09-10T04:58:48.876Z,17.10
2018-09-10T05:01:17.936Z,17.10
2018-09-10T05:03:46.845Z,17.10
2018-09-10T05:06:15.781Z,17.00
2018-09-10T05:08:44.672Z,17.00
2018-09-10T05:11:13.612Z,17.00
2018-09-10T05:13:42.544Z,17.00
2018-09-10T05:16:11.505Z,16.90
2018-09-10T05:18:40.400Z,16.90
2018-09-10T05:21:09.329Z,16.80
2018-09-10T05:23:38.237Z,16.90
2018-09-10T05:26:07.120Z,16.90
2018-09-10T05:28:36.056Z,16.90
2018-09-10T05:31:05.304Z,16.90
2018-09-10T05:33:34.249Z,16.90
2018-09-10T05:36:03.172Z,16.90
2018-09-10T05:38:32.104Z,16.90
2018-09-10T05:41:00.989Z,16.90
2018-09-10T05:43:29.957Z,16.90
2018-09-10T05:45:58.865Z,16.90
2018-09-10T05:48:27.821Z,16.90
2018-09-10T05:50:56.705Z,16.90
2018-09-10T05:53:25.624Z,16.90
2018-09-10T05:55:54.533Z,16.90
2018-09-10T05:58:23.460Z,16.90
2018-09-10T06:00:53.069Z,16.90
2018-09-10T06:03:22.049Z,16.90
2018-09-10T06:05:51.005Z,17.00
2018-09-10T06:08:19.932Z,17.00
2018-09-10T06:10:48.816Z,17.00
2018-09-10T06:13:17.737Z,17.10
2018-09-10T06:15:46.673Z,17.10
2018-09-10T06:18:15.609Z,17.10
2018-09-10T06:20:44.493Z,17.10
2018-09-10T06:23:13.412Z,17.20
2018-09-10T06:25:42.323Z,17.20
2018-09-10T06:28:11.252Z,17.20
2018-09-10T06:30:40.137Z,17.20
2018-09-10T06:33:09.061Z,17.30
2018-09-10T06:35:38.034Z,17.30
2018-09-10T06:38:07.001Z,17.30
2018-09-10T06:40:35.897Z,17.30
2018-09-10T06:43:04.821Z,17.30
2018-09-10T06:45:33.713Z,17.40
2018-09-10T06:48:02.656Z,17.40
2018-09-10T06:50:31.536Z,17.40
2018-09-10T06:53:00.500Z,17.50
2018-09-10T06:55:29.396Z,17.50
2018-09-10T06:57:58.309Z,17.60
2018-09-10T07:00:27.217Z,17.60
2018-09-10T07:02:56.142Z,17.70
2018-09-10T07:05:25.036Z,17.70
2018-09-10T07:07:54.049Z,17.70
2018-09-10T07:10:23.003Z,17.70
2018-09-10T07:12:51.905Z,17.80
2018-09-10T07:15:20.917Z,17.80
2018-09-10T07:17:50.123Z,17.80
2018-09-10T07:20:19.057Z,17.90
2018-09-10T07:22:48.013Z,17.90
2018-09-10T07:25:16.901Z,18.00
2018-09-10T07:27:45.947Z,18.00
2018-09-10T07:30:14.854Z,18.10
2018-09-10T07:32:43.781Z,18.10
2018-09-10T07:35:12.669Z,18.20
2018-09-10T07:37:41.600Z,18.30
2018-09-10T07:40:10.849Z,18.30
2018-09-10T07:42:39.769Z,18.40
2018-09-10T07:45:08.717Z,18.40
2018-09-10T07:47:37.637Z,18.50
2018-09-10T07:50:06.621Z,18.50
2018-09-10T07:52:36.149Z,18.60
2018-09-10T07:55:05.640Z,18.60
2018-09-10T07:57:34.618Z,18.60
2018-09-10T08:00:04.289Z,18.60
2018-09-10T08:02:33.224Z,18.80
2018-09-10T08:05:02.724Z,18.80
2018-09-10T08:07:31.664Z,19.00
2018-09-10T08:10:00.616Z,19.10
2018-09-10T08:12:29.529Z,19.20
2018-09-10T08:14:58.533Z,19.20
2018-09-10T08:17:27.473Z,19.30
2018-09-10T08:19:56.400Z,19.40
2018-09-10T08:22:25.297Z,19.40
2018-09-10T08:24:54.233Z,19.60
2018-09-10T08:27:23.133Z,19.60
2018-09-10T08:29:52.069Z,19.70
2018-09-10T08:32:20.973Z,19.70
2018-09-10T08:34:49.913Z,19.80
2018-09-10T08:37:18.812Z,19.90
2018-09-10T08:39:47.756Z,19.90
2018-09-10T08:42:16.655Z,20.00
2018-09-10T08:44:45.624Z,20.00
2018-09-10T08:47:14.597Z,20.10
2018-09-10T08:49:43.547Z,20.10
2018-09-10T08:52:12.433Z,20.20
2018-09-10T08:54:41.640Z,20.20
2018-09-10T08:57:10.288Z,20.30
2018-09-10T08:59:39.249Z,20.30
2018-09-10T09:02:08.364Z,20.40
2018-09-10T09:04:37.553Z,20.40
2018-09-10T09:07:06.460Z,20.50
2018-09-10T09:09:35.400Z,20.50
2018-09-10T09:12:04.304Z,20.60
2018-09-10T09:14:33.229Z,20.70
2018-09-10T09:17:02.112Z,20.70
2018-09-10T09:19:31.050Z,20.80
2018-09-10T09:21:59.941Z,20.80
2018-09-10T09:24:28.956Z,20.90
2018-09-10T09:26:57.852Z,20.90
2018-09-10T09:29:26.750Z,21.00
2018-09-10T09:31:55.688Z,21.00
2018-09-10T09:34:26.741Z,21.10
2018-09-10T09:37:00.856Z,21.10
2018-09-10T09:39:35.037Z,21.20
2018-09-10T09:42:09.271Z,21.30
2018-09-10T09:44:43.257Z,21.30
2018-09-10T09:47:12.194Z,21.40
2018-09-10T09:49:41.081Z,21.40
2018-09-10T09:52:10.029Z,21.40
2018-09-10T09:54:39.481Z,21.50
2018-09-10T09:57:08.421Z,21.60
2018-09-10T09:59:37.327Z,21.60
2018-09-10T10:02:11.359Z,21.70
2018-09-10T10:04:40.354Z,21.70
2018-09-10T10:07:09.263Z,21.80
2018-09-10T10:09:38.188Z,21.90
2018-09-10T10:12:07.178Z,21.90
2018-09-10T10:14:36.100Z,22.00
2018-09-10T10:17:05.069Z,22.10
2018-09-10T10:19:33.969Z,22.20
2018-09-10T10:22:02.985Z,22.20
2018-09-10T10:24:31.844Z,22.30
2018-09-10T10:27:00.794Z,22.40
2018-09-10T10:29:29.704Z,22.50
2018-09-10T10:31:58.624Z,22.60
2018-09-10T10:34:27.523Z,22.60
2018-09-10T10:36:56.458Z,22.70
2018-09-10T10:39:25.410Z,22.80
2018-09-10T10:41:54.351Z,22.80
2018-09-10T10:44:23.251Z,22.90
2018-09-10T10:46:52.201Z,22.90
2018-09-10T10:49:21.100Z,23.00
2018-09-10T10:51:50.125Z,23.10
2018-09-10T10:54:19.020Z,23.10
2018-09-10T10:56:47.936Z,23.10
2018-09-10T10:59:16.824Z,23.20
2018-09-10T11:01:45.764Z,23.20
2018-09-10T11:04:14.677Z,23.30
2018-09-10T11:06:43.629Z,23.30
2018-09-10T11:09:12.533Z,23.30
2018-09-10T11:11:41.489Z,23.40
2018-09-10T11:14:10.377Z,23.40
2018-09-10T11:16:39.382Z,23.50
2018-09-10T11:19:08.260Z,23.60
2018-09-10T11:21:37.197Z,23.60
2018-09-10T11:24:06.057Z,23.70
2018-09-10T11:26:34.989Z,23.80
2018-09-10T11:29:03.913Z,23.90
2018-09-10T11:31:32.853Z,24.00
2018-09-10T11:34:01.740Z,24.00
2018-09-10T11:36:30.696Z,24.10
2018-09-10T11:38:59.617Z,24.10
2018-09-10T11:41:28.571Z,24.20
2018-09-10T11:43:57.501Z,24.30
2018-09-10T11:46:26.434Z,24.40
2018-09-10T11:48:55.433Z,24.50
2018-09-10T11:51:24.326Z,24.60
2018-09-10T11:53:53.265Z,24.80
2018-09-10T11:56:22.158Z,24.90
2018-09-10T11:58:51.264Z,24.90
2018-09-10T12:01:20.241Z,25.00
2018-09-10T12:03:49.189Z,24.90
2018-09-10T12:06:19.111Z,25.00
2018-09-10T12:08:48.034Z,25.00
2018-09-10T12:11:17.097Z,25.10
2018-09-10T12:13:46.177Z,25.10
2018-09-10T12:16:15.071Z,25.10
2018-09-10T12:18:44.013Z,25.20
2018-09-10T12:21:12.916Z,25.20
2018-09-10T12:23:41.844Z,25.20
2018-09-10T12:26:10.742Z,25.30
2018-09-10T12:28:39.697Z,25.30
2018-09-10T12:31:08.598Z,25.40
2018-09-10T12:33:37.531Z,25.50
2018-09-10T12:36:06.524Z,25.60
2018-09-10T12:38:35.465Z,25.70
2018-09-10T12:41:04.376Z,25.80
2018-09-10T12:43:33.335Z,25.90
2018-09-10T12:46:02.224Z,26.00
2018-09-10T12:48:31.145Z,26.10
2018-09-10T12:51:00.032Z,26.20
2018-09-10T12:53:28.941Z,26.20
2018-09-10T12:55:57.840Z,26.30
2018-09-10T12:58:26.789Z,26.30
2018-09-10T13:00:55.675Z,26.40
2018-09-10T13:03:24.589Z,26.40
2018-09-10T13:05:53.485Z,26.50
2018-09-10T13:08:22.457Z,26.50
2018-09-10T13:10:51.389Z,26.60
2018-09-10T13:13:20.339Z,26.80
2018-09-10T13:15:49.234Z,26.80
2018-09-10T13:18:18.156Z,27.00
2018-09-10T13:20:47.079Z,27.10
2018-09-10T13:23:15.997Z,27.20
2018-09-10T13:25:44.872Z,27.20
2018-09-10T13:28:13.765Z,27.30
2018-09-10T13:30:42.709Z,27.40
2018-09-10T13:33:11.597Z,27.40
2018-09-10T13:35:40.521Z,27.50
2018-09-10T13:38:09.480Z,27.60
2018-09-10T13:40:38.417Z,27.70
2018-09-10T13:43:07.401Z,27.80
2018-09-10T13:45:36.458Z,27.90
2018-09-10T13:48:05.562Z,28.00
2018-09-10T13:50:34.517Z,28.20
2018-09-10T13:53:03.416Z,28.30
2018-09-10T13:55:32.334Z,28.40
2018-09-10T13:58:01.268Z,28.60
2018-09-10T14:00:30.220Z,28.70
2018-09-10T14:02:59.116Z,28.70
2018-09-10T14:05:28.038Z,28.80
2018-09-10T14:07:56.932Z,28.80
2018-09-10T14:10:25.852Z,28.80
2018-09-10T14:12:54.744Z,28.80
2018-09-10T14:15:23.690Z,28.70
2018-09-10T14:17:52.584Z,28.70
2018-09-10T14:20:21.524Z,28.70
2018-09-10T14:22:50.447Z,28.60
2018-09-10T14:25:19.381Z,28.60
2018-09-10T14:27:48.455Z,28.60
2018-09-10T14:30:17.380Z,28.50
2018-09-10T14:32:46.288Z,28.50
2018-09-10T14:35:15.236Z,28.50
2018-09-10T14:37:44.134Z,28.60
2018-09-10T14:40:13.073Z,28.60
2018-09-10T14:42:42.022Z,28.70
2018-09-10T14:45:10.952Z,28.70
2018-09-10T14:47:39.897Z,28.80
2018-09-10T14:50:09.661Z,28.80
2018-09-10T14:52:38.589Z,28.90
2018-09-10T14:55:07.525Z,28.90
2018-09-10T14:57:36.468Z,29.00
2018-09-10T15:00:05.955Z,29.00
2018-09-10T15:02:34.873Z,29.00
2018-09-10T15:05:04.146Z,29.00
2018-09-10T15:07:33.064Z,29.00
2018-09-10T15:10:01.955Z,28.90
2018-09-10T15:12:30.912Z,28.90
2018-09-10T15:14:59.821Z,28.90
2018-09-10T15:17:28.781Z,28.80
2018-09-10T15:19:57.676Z,28.80
2018-09-10T15:22:26.560Z,28.80
2018-09-10T15:24:55.492Z,28.70
2018-09-10T15:27:24.384Z,28.70
2018-09-10T15:29:53.553Z,28.60
2018-09-10T15:32:22.729Z,28.60
2018-09-10T15:34:51.732Z,28.50
2018-09-10T15:37:20.637Z,28.40
2018-09-10T15:39:49.573Z,28.30
2018-09-10T15:42:18.468Z,28.30
2018-09-10T15:44:47.385Z,28.20
2018-09-10T15:47:16.285Z,28.20
2018-09-10T15:49:45.217Z,28.10
2018-09-10T15:52:14.108Z,28.10
2018-09-10T15:54:43.029Z,28.00
2018-09-10T15:57:11.919Z,28.00
2018-09-10T15:59:40.839Z,27.90
2018-09-10T16:02:09.777Z,27.80
2018-09-10T16:04:38.728Z,27.70
2018-09-10T16:07:07.685Z,27.70
2018-09-10T16:09:36.597Z,27.60
2018-09-10T16:12:05.503Z,27.60
2018-09-10T16:14:34.436Z,27.50
2018-09-10T16:17:03.407Z,27.50
2018-09-10T16:19:32.305Z,27.40
2018-09-10T16:22:01.212Z,27.30
2018-09-10T16:24:30.181Z,27.30
2018-09-10T16:26:59.073Z,27.20
2018-09-10T16:29:28.050Z,27.20
2018-09-10T16:31:56.943Z,27.10
2018-09-10T16:34:25.877Z,27.00
2018-09-10T16:36:54.804Z,27.00
2018-09-10T16:39:23.727Z,26.90
2018-09-10T16:41:52.625Z,26.90
2018-09-10T16:44:21.556Z,26.80
2018-09-10T16:46:50.454Z,26.80
2018-09-10T16:49:19.399Z,26.70
2018-09-10T16:51:48.295Z,26.60
2018-09-10T16:54:17.347Z,26.60
2018-09-10T16:56:46.160Z,26.50
2018-09-10T16:59:15.109Z,26.50
2018-09-10T17:01:44.022Z,26.50
2018-09-10T17:04:12.997Z,26.40
2018-09-10T17:06:42.728Z,26.40
2018-09-10T17:09:11.709Z,26.30
2018-09-10T17:11:40.632Z,26.30
2018-09-10T17:14:09.572Z,26.30
2018-09-10T17:16:38.586Z,26.20
2018-09-10T17:19:07.528Z,26.20
2018-09-10T17:21:36.501Z,26.10
2018-09-10T17:24:05.452Z,26.10
2018-09-10T17:26:34.388Z,26.10
2018-09-10T17:29:03.275Z,26.10
2018-09-10T17:31:32.213Z,26.00
2018-09-10T17:34:01.197Z,26.00
2018-09-10T17:36:30.213Z,25.90
2018-09-10T17:38:59.112Z,25.90
2018-09-10T17:41:28.069Z,25.90
2018-09-10T17:43:57.861Z,25.90
2018-09-10T17:46:26.804Z,25.90
2018-09-10T17:48:55.702Z,25.80
2018-09-10T17:51:24.636Z,25.80
2018-09-10T17:53:53.549Z,25.80
2018-09-10T17:56:22.467Z,25.70
2018-09-10T17:58:51.690Z,25.70
2018-09-10T18:01:20.637Z,25.70
2018-09-10T18:03:49.533Z,25.70
2018-09-10T18:06:18.468Z,25.70
2018-09-10T18:08:47.361Z,25.60
2018-09-10T18:11:16.288Z,25.60
2018-09-10T18:13:47.069Z,25.60
2018-09-10T18:16:16.003Z,25.50
2018-09-10T18:18:44.900Z,25.50
2018-09-10T18:21:13.825Z,25.50
2018-09-10T18:23:42.708Z,25.50
2018-09-10T18:26:11.637Z,25.50
2018-09-10T18:28:41.373Z,25.40
2018-09-10T18:31:10.318Z,25.40
2018-09-10T18:33:39.237Z,25.40
2018-09-10T18:36:08.253Z,25.40
2018-09-10T18:38:37.170Z,25.40
2018-09-10T18:41:06.116Z,25.30
2018-09-10T18:43:35.016Z,25.30
2018-09-10T18:46:04.057Z,25.30
2018-09-10T18:48:32.959Z,25.30
2018-09-10T18:51:01.881Z,25.30
2018-09-10T18:53:30.864Z,25.20
2018-09-10T18:55:59.805Z,25.20
2018-09-10T18:58:28.755Z,25.20
2018-09-10T19:00:57.921Z,25.20
2018-09-10T19:03:27.132Z,25.20
2018-09-10T19:05:56.109Z,25.10
2018-09-10T19:08:25.068Z,25.10
2018-09-10T19:10:54.002Z,25.10
2018-09-10T19:13:22.900Z,25.10
2018-09-10T19:15:51.820Z,25.10
2018-09-10T19:18:20.796Z,25.10
2018-09-10T19:20:49.736Z,25.00
2018-09-10T19:23:18.730Z,25.00
2018-09-10T19:25:47.630Z,25.00
2018-09-10T19:28:16.565Z,25.00
2018-09-10T19:30:45.445Z,24.90
2018-09-10T19:33:14.409Z,25.00
2018-09-10T19:35:43.333Z,24.90
2018-09-10T19:38:12.308Z,24.90
2018-09-10T19:40:41.269Z,24.90
2018-09-10T19:43:10.221Z,24.90
2018-09-10T19:45:39.217Z,24.90
2018-09-10T19:48:08.188Z,24.90
2018-09-10T19:50:37.123Z,24.90
2018-09-10T19:53:06.076Z,24.80
2018-09-10T19:55:34.958Z,24.80
2018-09-10T19:58:03.924Z,24.80
2018-09-10T20:00:32.977Z,24.80
2018-09-10T20:03:02.108Z,24.80
2018-09-10T20:05:31.020Z,24.70
2018-09-10T20:07:59.962Z,24.70
2018-09-10T20:10:28.853Z,24.70
2018-09-10T20:12:57.769Z,24.70
2018-09-10T20:15:26.721Z,24.60
2018-09-10T20:17:55.680Z,24.60
2018-09-10T20:20:24.582Z,24.60
2018-09-10T20:22:53.523Z,24.60
2018-09-10T20:25:22.465Z,24.60
2018-09-10T20:27:51.409Z,24.50
2018-09-10T20:30:20.317Z,24.50
2018-09-10T20:32:49.245Z,24.50
2018-09-10T20:35:18.170Z,24.50
2018-09-10T20:37:47.104Z,24.50
2018-09-10T20:40:15.997Z,24.50
2018-09-10T20:42:44.927Z,24.50
2018-09-10T20:45:13.916Z,24.40
2018-09-10T20:47:42.973Z,24.40
2018-09-10T20:50:11.912Z,24.40
2018-09-10T20:52:40.838Z,24.40
2018-09-10T20:55:09.771Z,24.40
2018-09-10T20:57:38.729Z,24.30
2018-09-10T21:00:07.614Z,24.30
2018-09-10T21:02:36.530Z,24.30
2018-09-10T21:05:05.457Z,24.30
2018-09-10T21:07:34.447Z,24.30
2018-09-10T21:10:03.312Z,24.30
2018-09-10T21:12:32.243Z,24.30
2018-09-10T21:15:01.165Z,24.20
2018-09-10T21:17:30.136Z,24.20
2018-09-10T21:19:59.195Z,24.20
2018-09-10T21:22:28.148Z,24.10
2018-09-10T21:24:57.069Z,24.10
2018-09-10T21:27:25.953Z,24.10
2018-09-10T21:29:54.983Z,24.10
2018-09-10T21:32:23.965Z,24.10
2018-09-10T21:34:52.933Z,24.00
2018-09-10T21:37:21.820Z,24.00
2018-09-10T21:39:50.774Z,24.00
2018-09-10T21:42:19.664Z,24.00
2018-09-10T21:44:48.580Z,24.00
2018-09-10T21:47:17.481Z,23.90
2018-09-10T21:49:46.423Z,23.90
2018-09-10T21:52:15.312Z,23.90
2018-09-10T21:54:44.245Z,23.90
2018-09-10T21:57:13.148Z,23.90
2018-09-10T21:59:42.280Z,23.90
2018-09-10T22:02:11.152Z,23.80
2018-09-10T22:04:40.114Z,23.80
2018-09-10T22:07:09.065Z,23.80
2018-09-10T22:09:38.552Z,23.80
2018-09-10T22:12:07.722Z,23.80
2018-09-10T22:14:36.697Z,23.80
2018-09-10T22:17:05.613Z,23.80
2018-09-10T22:19:34.545Z,23.70
2018-09-10T22:22:03.448Z,23.70
2018-09-10T22:24:32.418Z,23.70
2018-09-10T22:27:01.300Z,23.70
2018-09-10T22:29:30.215Z,23.70
2018-09-10T22:31:59.125Z,23.70
2018-09-10T22:34:28.048Z,23.70
2018-09-10T22:36:56.953Z,23.70
2018-09-10T22:39:25.952Z,23.70
2018-09-10T22:41:54.905Z,23.70
2018-09-10T22:44:23.981Z,23.70
2018-09-10T22:46:52.868Z,23.70
2018-09-10T22:49:21.812Z,23.70
2018-09-10T22:51:50.724Z,23.70
2018-09-10T22:54:19.637Z,23.70
2018-09-10T22:56:48.537Z,23.70
2018-09-10T22:59:17.476Z,23.60
2018-09-10T23:01:46.370Z,23.70
2018-09-10T23:04:15.312Z,23.60
2018-09-10T23:06:44.223Z,23.60
2018-09-10T23:09:13.153Z,23.60
2018-09-10T23:11:42.049Z,23.60
2018-09-10T23:14:11.048Z,23.60
2018-09-10T23:16:40.115Z,23.60
2018-09-10T23:19:08.954Z,23.60
2018-09-10T23:21:37.920Z,23.50
2018-09-10T23:24:06.816Z,23.50
2018-09-10T23:26:35.800Z,23.50
2018-09-10T23:29:04.705Z,23.40
2018-09-10T23:31:33.652Z,23.40
2018-09-10T23:34:02.560Z,23.40
2018-09-10T23:36:31.498Z,23.30
2018-09-10T23:39:00.373Z,23.30
2018-09-10T23:41:29.303Z,23.30
2018-09-10T23:43:58.233Z,23.30
2018-09-10T23:46:27.135Z,23.30
2018-09-10T23:48:56.101Z,23.30
2018-09-10T23:51:25.001Z,23.30
2018-09-10T23:53:53.957Z,23.20
2018-09-10T23:56:22.844Z,23.20
2018-09-10T23:58:51.781Z,23.20
